Time;durP1;ratioP1;P1;durP2;ratioP2;P2;SDS_P1;SDS_P2;PMS_P1;PMS_P2;Temp;Humidity;BMP_temperature;BMP_pressure;BME280_temperature;BME280_humidity;BME280_pressure;Samples;Min_cycle;Max_cycle;Signal;HPM_P1;HPM_P2
2022/04/08 00:01:08;;;;;;;7.07;0.90;;;;;;;10.40;45.71;98964.75;5079171;28;20210;-67
2022/04/08 00:03:37;;;;;;;3.90;1.03;;;;;;;10.55;45.96;98959.47;5076623;28;20213;-68
2022/04/08 00:06:08;;;;;;;6.77;1.33;;;;;;;10.38;46.17;98961.44;5079602;28;20611;-68
2022/04/08 00:08:36;;;;;;;5.93;1.37;;;;;;;10.47;46.73;98962.19;5076833;28;20613;-68
2022/04/08 00:11:07;;;;;;;4.83;0.90;;;;;;;10.08;47.23;98960.63;5078330;28;20243;-68
2022/04/08 00:13:35;;;;;;;3.37;1.10;;;;;;;10.20;47.63;98957.56;5076893;28;20227;-68
2022/04/08 00:16:02;;;;;;;9.30;1.20;;;;;;;10.39;47.45;98976.34;5076117;28;20288;-69
2022/04/08 00:18:30;;;;;;;9.20;1.37;;;;;;;10.44;47.89;98962.56;5073107;28;20215;-68
2022/04/08 00:20:59;;;;;;;7.43;1.00;;;;;;;10.57;47.69;98955.59;5080066;28;20303;-67
2022/04/08 00:23:27;;;;;;;8.83;0.93;;;;;;;10.66;47.98;98966.09;5079655;28;20233;-68
2022/04/08 00:25:54;;;;;;;6.77;1.17;;;;;;;10.51;48.14;98955.53;5077949;28;20586;-68
2022/04/08 00:28:24;;;;;;;7.03;1.20;;;;;;;10.38;48.51;98960.66;5078085;28;20617;-68
2022/04/08 00:30:51;;;;;;;5.13;1.00;;;;;;;10.60;48.28;98967.66;5082318;28;20562;-68
2022/04/08 00:33:25;;;;;;;3.93;0.97;;;;;;;10.41;48.51;98962.94;5074434;28;20211;-68
2022/04/08 00:35:53;;;;;;;7.27;1.30;;;;;;;10.33;49.03;98971.78;5078070;28;20215;-68
2022/04/08 00:38:20;;;;;;;6.17;1.30;;;;;;;10.29;49.67;98988.25;5077530;28;20217;-68
2022/04/08 00:40:57;;;;;;;5.20;1.60;;;;;;;10.32;49.09;98980.75;5076360;28;20734;-69
2022/04/08 00:43:35;;;;;;;6.87;1.10;;;;;;;10.18;49.33;98984.22;5079475;28;20313;-67
2022/04/08 00:46:18;;;;;;;8.60;1.60;;;;;;;10.14;49.83;98989.00;5073974;28;20208;-68
2022/04/08 00:48:46;;;;;;;6.20;1.07;;;;;;;10.15;49.29;98995.97;5074459;28;20210;-68
2022/04/08 00:51:15;;;;;;;6.33;1.30;;;;;;;10.39;49.16;98996.72;5073472;28;20228;-67
2022/04/08 00:53:45;;;;;;;10.47;1.70;;;;;;;10.20;49.28;98989.34;5081309;28;20239;-69
2022/04/08 00:56:13;;;;;;;11.27;1.53;;;;;;;10.24;49.27;98994.06;5078103;28;20217;-69
2022/04/08 00:58:43;;;;;;;9.13;1.30;;;;;;;10.01;49.32;98998.59;5078618;28;20215;-69
2022/04/08 01:01:11;;;;;;;7.70;1.27;;;;;;;10.12;49.71;98995.47;5075294;28;20215;-66
2022/04/08 01:03:52;;;;;;;9.40;1.20;;;;;;;10.49;48.95;99006.06;5076310;28;20208;-69
2022/04/08 01:06:21;;;;;;;11.27;1.73;;;;;;;10.28;49.36;99008.63;5072409;28;20222;-69
2022/04/08 01:08:50;;;;;;;6.67;0.87;;;;;;;10.32;48.97;99006.41;5079106;28;20827;-69
2022/04/08 01:11:17;;;;;;;8.87;1.47;;;;;;;10.58;49.29;99006.78;5076307;28;20230;-67
2022/04/08 01:13:47;;;;;;;9.37;1.27;;;;;;;10.22;49.86;99011.97;5080423;28;20225;-68
2022/04/08 01:16:14;;;;;;;6.73;1.50;;;;;;;10.25;49.58;99016.09;5080387;28;20293;-68
2022/04/08 01:18:42;;;;;;;6.33;1.13;;;;;;;10.20;50.20;99023.78;5072777;28;20207;-67
2022/04/08 01:21:10;;;;;;;9.43;1.57;;;;;;;10.44;49.52;99027.00;5077132;28;20344;-68
2022/04/08 01:23:37;;;;;;;5.50;1.07;;;;;;;10.39;49.36;99028.53;5081732;28;20211;-68
2022/04/08 01:26:08;;;;;;;10.47;1.80;;;;;;;10.28;49.87;99026.34;5078252;28;20621;-68
2022/04/08 01:28:36;;;;;;;8.80;1.33;;;;;;;10.09;50.28;99033.75;5076218;28;20200;-67
2022/04/08 01:31:05;;;;;;;5.17;1.20;;;;;;;9.96;50.58;99038.84;5073441;28;20203;-68
2022/04/08 01:33:32;;;;;;;5.43;1.40;;;;;;;9.72;51.15;99036.38;5071000;28;20320;-67
2022/04/08 01:36:00;;;;;;;7.10;1.63;;;;;;;10.01;50.94;99047.09;5081125;28;20206;-68
2022/04/08 01:38:34;;;;;;;7.83;1.57;;;;;;;9.72;51.34;99052.28;5073678;28;20212;-68
2022/04/08 01:41:06;;;;;;;7.33;1.37;;;;;;;9.89;51.60;99053.78;5076698;28;20214;-69
2022/04/08 01:43:34;;;;;;;6.97;1.20;;;;;;;9.70;51.71;99048.97;5075342;28;20239;-68
2022/04/08 01:46:02;;;;;;;9.70;1.10;;;;;;;9.86;51.38;99056.78;5078533;28;20222;-68
2022/04/08 01:48:30;;;;;;;13.30;1.40;;;;;;;9.88;51.80;99052.16;5075509;28;20250;-68
2022/04/08 01:50:57;;;;;;;10.63;1.63;;;;;;;10.06;51.28;99054.47;5077594;28;20300;-69
2022/04/08 01:53:25;;;;;;;11.20;1.43;;;;;;;10.25;50.93;99063.78;5076220;28;20715;-66
2022/04/08 01:55:53;;;;;;;9.60;1.17;;;;;;;10.18;51.09;99053.91;5076686;28;20287;-68
2022/04/08 01:58:22;;;;;;;8.60;1.30;;;;;;;9.99;51.70;99053.56;5074980;28;20221;-67
2022/04/08 02:00:50;;;;;;;10.77;1.83;;;;;;;9.93;51.83;99055.09;5085070;28;20301;-67
2022/04/08 02:03:20;;;;;;;6.80;0.97;;;;;;;10.12;51.70;99059.88;5077671;28;20211;-68
2022/04/08 02:05:48;;;;;;;10.30;1.50;;;;;;;9.91;52.18;99062.38;5075182;28;20210;-69
2022/04/08 02:08:23;;;;;;;8.40;1.10;;;;;;;9.87;52.46;99061.09;5075607;28;20212;-69
2022/04/08 02:10:53;;;;;;;8.30;1.37;;;;;;;9.80;52.41;99060.97;5075781;28;20991;-67
2022/04/08 02:13:22;;;;;;;7.90;1.47;;;;;;;9.98;52.24;99060.66;5074375;28;20223;-69
2022/04/08 02:15:56;;;;;;;6.93;1.50;;;;;;;10.07;52.40;99067.53;5076370;28;20300;-68
2022/04/08 02:18:24;;;;;;;10.73;2.10;;;;;;;10.12;51.98;99059.88;5075193;28;22056;-69
2022/04/08 02:20:52;;;;;;;6.10;1.30;;;;;;;9.80;52.90;99070.75;5080207;28;20310;-67
2022/04/08 02:23:19;;;;;;;11.93;1.70;;;;;;;9.93;52.49;99070.16;5078304;28;20209;-68
2022/04/08 02:25:47;;;;;;;9.20;1.70;;;;;;;9.74;53.58;99080.22;5075626;28;20687;-69
2022/04/08 02:28:15;;;;;;;9.17;1.43;;;;;;;10.06;52.47;99076.50;5074856;28;20207;-68
2022/04/08 02:30:52;;;;;;;11.30;1.57;;;;;;;9.86;53.00;99090.38;5078452;28;20214;-68
2022/04/08 02:33:20;;;;;;;7.57;1.37;;;;;;;9.57;54.31;99083.16;5077767;28;20230;-68
2022/04/08 02:35:48;;;;;;;10.57;1.60;;;;;;;9.71;53.70;99087.69;5077025;28;20206;-67
2022/04/08 02:38:19;;;;;;;7.33;1.40;;;;;;;9.90;53.25;99087.22;5079546;28;20591;-68
2022/04/08 02:40:46;;;;;;;9.17;1.73;;;;;;;9.64;54.34;99097.31;5073974;28;20227;-68
2022/04/08 02:43:14;;;;;;;12.27;2.27;;;;;;;9.71;54.00;99095.63;5079516;28;20687;-68
2022/04/08 02:45:45;;;;;;;11.63;1.70;;;;;;;9.59;54.75;99107.59;5075314;28;20298;-68
2022/04/08 02:48:19;;;;;;;8.87;1.97;;;;;;;9.48;55.07;99105.38;5079803;28;20369;-69
2022/04/08 02:50:47;;;;;;;7.80;1.80;;;;;;;9.55;55.04;99103.66;5078854;28;20219;-68
2022/04/08 02:53:15;;;;;;;11.90;1.80;;;;;;;9.48;55.20;99108.00;5076514;28;20214;-68
2022/04/08 02:55:44;;;;;;;7.20;1.47;;;;;;;9.36;55.39;99118.16;5077909;28;20221;-68
2022/04/08 02:58:12;;;;;;;8.93;1.17;;;;;;;9.62;54.83;99120.50;5078351;28;20204;-68
2022/04/08 03:00:42;;;;;;;6.93;1.10;;;;;;;9.70;54.76;99118.63;5079051;28;20693;-68
2022/04/08 03:03:11;;;;;;;10.47;1.60;;;;;;;9.49;55.42;99128.19;5077588;28;20287;-69
2022/04/08 03:05:39;;;;;;;10.03;2.13;;;;;;;9.28;56.12;99126.13;5073320;28;20203;-68
2022/04/08 03:08:09;;;;;;;10.47;1.23;;;;;;;9.54;55.32;99131.13;5083640;28;20309;-68
2022/04/08 03:10:38;;;;;;;10.53;1.60;;;;;;;9.71;55.02;99138.78;5080704;28;20353;-68
2022/04/08 03:13:06;;;;;;;14.73;2.13;;;;;;;9.65;55.15;99141.31;5083726;28;20223;-67
2022/04/08 03:15:34;;;;;;;9.50;1.30;;;;;;;9.61;55.27;99140.00;5081374;28;20206;-69
2022/04/08 03:18:01;;;;;;;8.30;1.37;;;;;;;9.66;55.35;99142.97;5080473;28;21814;-66
2022/04/08 03:20:31;;;;;;;6.17;1.67;;;;;;;9.61;55.67;99153.25;5080572;28;20246;-68
2022/04/08 03:22:59;;;;;;;7.63;1.53;;;;;;;9.66;55.70;99153.56;5079045;28;20205;-69
2022/04/08 03:25:27;;;;;;;8.50;1.13;;;;;;;9.29;56.71;99157.69;5078651;28;20676;-67
2022/04/08 03:27:54;;;;;;;17.20;1.83;;;;;;;9.68;56.03;99156.84;5079742;28;20660;-68
2022/04/08 03:30:24;;;;;;;6.23;1.47;;;;;;;9.76;55.78;99149.66;5077280;28;20205;-68
2022/04/08 03:32:51;;;;;;;8.77;1.63;;;;;;;9.32;56.83;99157.34;5080727;28;20227;-68
2022/04/08 03:35:19;;;;;;;5.77;1.13;;;;;;;9.69;56.22;99155.84;5077427;28;20238;-68
2022/04/08 03:37:48;;;;;;;13.17;1.90;;;;;;;9.56;56.81;99152.94;5077386;28;20774;-68
2022/04/08 03:40:17;;;;;;;9.40;1.80;;;;;;;9.43;56.85;99164.91;5078645;28;20298;-67
2022/04/08 03:42:44;;;;;;;8.83;1.97;;;;;;;9.47;57.30;99172.50;5078527;28;20551;-68
2022/04/08 03:45:13;;;;;;;12.10;1.77;;;;;;;9.24;57.73;99167.94;5079824;28;20225;-68
2022/04/08 03:47:43;;;;;;;9.07;1.83;;;;;;;9.37;57.72;99165.59;5075291;28;20276;-68
2022/04/08 03:50:13;;;;;;;10.23;2.20;;;;;;;9.41;57.57;99166.09;5080101;28;20221;-68
2022/04/08 03:52:42;;;;;;;8.90;1.63;;;;;;;9.44;57.15;99169.19;5078456;28;20668;-68
2022/04/08 03:55:11;;;;;;;10.07;1.77;;;;;;;9.27;57.38;99170.25;5078141;28;20253;-68
2022/04/08 03:57:46;;;;;;;9.90;1.60;;;;;;;8.98;58.38;99168.19;5083108;28;20207;-68
2022/04/08 04:00:15;;;;;;;8.50;2.07;;;;;;;9.01;58.29;99175.81;5075950;28;20224;-68
2022/04/08 04:02:43;;;;;;;16.20;2.30;;;;;;;9.21;57.95;99172.78;5083255;28;20246;-68
2022/04/08 04:05:16;;;;;;;14.50;1.53;;;;;;;9.28;58.03;99181.69;5080431;28;20256;-68
2022/04/08 04:07:44;;;;;;;7.27;1.63;;;;;;;8.95;58.75;99188.88;5080670;28;20238;-69
2022/04/08 04:10:21;;;;;;;11.77;1.73;;;;;;;9.02;58.79;99195.13;5081969;28;20237;-67
2022/04/08 04:12:49;;;;;;;8.17;1.83;;;;;;;9.02;59.17;99203.91;5079155;28;20211;-68
2022/04/08 04:15:17;;;;;;;10.73;2.27;;;;;;;8.77;60.11;99198.81;5076503;28;20210;-69
2022/04/08 04:17:45;;;;;;;8.40;1.43;;;;;;;9.13;58.77;99188.66;5076819;28;20648;-69
2022/04/08 04:20:13;;;;;;;10.87;1.47;;;;;;;8.84;59.87;99200.63;5073548;28;20300;-68
2022/04/08 04:22:40;;;;;;;6.43;1.70;;;;;;;9.05;59.70;99210.69;5074998;28;20207;-68
2022/04/08 04:25:09;;;;;;;8.30;1.57;;;;;;;8.56;61.19;99223.09;5076429;28;20640;-67
2022/04/08 04:27:38;;;;;;;11.90;1.93;;;;;;;8.97;59.77;99215.97;5074648;28;20206;-69
2022/04/08 04:30:07;;;;;;;11.20;1.70;;;;;;;8.90;60.24;99221.09;5076383;28;20613;-67
2022/04/08 04:32:34;;;;;;;10.10;1.60;;;;;;;8.94;60.24;99226.88;5076946;28;20210;-68
2022/04/08 04:35:06;;;;;;;9.03;1.57;;;;;;;9.06;60.13;99225.53;5077875;28;20326;-68
2022/04/08 04:37:34;;;;;;;9.60;1.73;;;;;;;8.87;60.82;99225.91;5077706;28;20695;-69
2022/04/08 04:40:03;;;;;;;6.97;2.03;;;;;;;9.01;60.48;99227.84;5079498;28;20246;-67
2022/04/08 04:42:30;;;;;;;6.30;1.63;;;;;;;8.96;60.63;99224.91;5080538;28;20251;-68
2022/04/08 04:45:07;;;;;;;10.33;1.80;;;;;;;8.96;60.58;99232.84;5080908;28;20323;-69
2022/04/08 04:47:35;;;;;;;11.90;1.90;;;;;;;9.03;60.54;99236.44;5073775;28;20297;-69
2022/04/08 04:50:02;;;;;;;6.47;1.93;;;;;;;9.09;60.14;99240.22;5079307;28;20309;-68
2022/04/08 04:52:30;;;;;;;8.97;2.23;;;;;;;8.90;61.23;99236.13;5077600;28;20668;-68
2022/04/08 04:54:58;;;;;;;11.47;2.10;;;;;;;9.12;60.37;99234.63;5076959;28;20313;-68
2022/04/08 04:57:26;;;;;;;4.97;1.47;;;;;;;9.12;60.65;99229.34;5076650;28;20740;-67
2022/04/08 04:59:54;;;;;;;9.73;1.90;;;;;;;8.82;61.34;99228.22;5076932;28;20848;-69
2022/04/08 05:02:23;;;;;;;7.13;2.40;;;;;;;8.92;61.52;99236.78;5079055;28;20210;-68
2022/04/08 05:04:51;;;;;;;11.10;2.00;;;;;;;9.32;60.00;99242.00;5079190;28;20210;-69
2022/04/08 05:07:20;;;;;;;9.90;2.23;;;;;;;9.04;60.64;99238.09;5075783;28;20199;-68
2022/04/08 05:09:48;;;;;;;10.40;1.70;;;;;;;9.31;60.11;99232.44;5075527;28;20205;-68
2022/04/08 05:12:16;;;;;;;7.77;1.53;;;;;;;9.41;59.87;99232.25;5080454;28;20630;-68
2022/04/08 05:14:45;;;;;;;6.27;1.80;;;;;;;9.50;59.45;99235.69;5079202;28;20223;-69
2022/04/08 05:17:13;;;;;;;9.30;2.00;;;;;;;9.56;59.51;99227.03;5080236;28;20242;-67
2022/04/08 05:19:42;;;;;;;12.23;1.57;;;;;;;9.39;59.97;99235.03;5080489;28;20199;-68
2022/04/08 05:22:14;;;;;;;9.97;1.87;;;;;;;9.03;61.17;99232.00;5079034;28;20571;-69
2022/04/08 05:24:44;;;;;;;10.60;1.80;;;;;;;9.01;61.75;99238.44;5078714;28;20209;-68
2022/04/08 05:27:11;;;;;;;9.57;1.60;;;;;;;8.80;62.30;99240.75;5082264;28;20302;-68
2022/04/08 05:29:39;;;;;;;9.43;1.93;;;;;;;9.05;61.92;99243.22;5078605;28;20349;-68
2022/04/08 05:32:08;;;;;;;9.63;1.90;;;;;;;8.97;62.32;99235.28;5082386;28;20210;-68
2022/04/08 05:34:36;;;;;;;11.97;2.20;;;;;;;8.80;62.54;99241.59;5082845;28;20306;-67
2022/04/08 05:37:05;;;;;;;12.07;2.27;;;;;;;8.74;63.05;99236.16;5083600;28;20230;-69
2022/04/08 05:39:33;;;;;;;11.30;1.80;;;;;;;8.85;62.96;99236.66;5074613;28;20611;-68
2022/04/08 05:42:00;;;;;;;10.03;1.90;;;;;;;8.96;62.66;99238.94;5074969;28;20211;-67
2022/04/08 05:44:28;;;;;;;14.67;2.10;;;;;;;8.83;63.23;99237.78;5074753;28;20223;-68
2022/04/08 05:46:56;;;;;;;12.13;2.50;;;;;;;9.30;61.69;99237.88;5079911;28;20294;-68
2022/04/08 05:49:23;;;;;;;14.07;2.53;;;;;;;8.90;63.13;99226.38;5081791;28;20541;-67
2022/04/08 05:51:51;;;;;;;9.07;1.87;;;;;;;8.84;63.30;99226.22;5084105;28;20206;-68
2022/04/08 05:54:37;;;;;;;13.80;1.70;;;;;;;9.17;62.60;99219.06;5074491;28;20248;-69
2022/04/08 05:57:05;;;;;;;16.70;2.57;;;;;;;8.76;63.84;99227.06;5084908;28;20207;-69
2022/04/08 05:59:37;;;;;;;7.57;1.80;;;;;;;9.00;63.51;99219.09;5079060;28;20633;-70
2022/04/08 06:02:10;;;;;;;8.93;2.00;;;;;;;9.27;62.13;99215.22;5078637;28;20412;-69
2022/04/08 06:04:38;;;;;;;6.30;1.47;;;;;;;9.03;63.28;99225.88;5075907;28;20206;-68
2022/04/08 06:07:06;;;;;;;13.63;2.57;;;;;;;8.93;63.88;99220.78;5073533;28;20207;-68
2022/04/08 06:09:34;;;;;;;10.10;1.80;;;;;;;8.75;64.34;99216.66;5075004;28;20222;-67
2022/04/08 06:12:09;;;;;;;15.73;2.50;;;;;;;8.76;64.28;99219.16;5074598;28;20211;-68
2022/04/08 06:14:37;;;;;;;11.63;1.80;;;;;;;9.09;63.78;99217.25;5077664;28;20266;-67
2022/04/08 06:17:05;;;;;;;12.37;2.27;;;;;;;9.02;63.91;99227.69;5077556;28;20226;-68
2022/04/08 06:19:33;;;;;;;8.93;1.80;;;;;;;9.45;62.61;99222.94;5079118;28;20660;-68
2022/04/08 06:22:01;;;;;;;11.07;2.13;;;;;;;8.91;64.10;99228.03;5077312;28;20214;-67
2022/04/08 06:24:28;;;;;;;10.63;2.30;;;;;;;8.97;64.25;99226.56;5074345;28;20200;-68
2022/04/08 06:26:56;;;;;;;9.70;2.23;;;;;;;9.39;63.01;99216.53;5077066;28;20234;-68
2022/04/08 06:29:25;;;;;;;12.07;1.80;;;;;;;9.17;63.93;99221.69;5073445;28;20203;-67
2022/04/08 06:31:53;;;;;;;7.67;2.60;;;;;;;9.39;63.40;99219.19;5074285;28;20297;-68
2022/04/08 06:34:21;;;;;;;13.60;1.97;;;;;;;9.30;63.64;99204.31;5080798;28;20232;-67
2022/04/08 06:36:49;;;;;;;8.07;2.30;;;;;;;9.40;63.26;99201.47;5081485;28;20235;-68
2022/04/08 06:39:16;;;;;;;10.10;2.50;;;;;;;9.63;62.58;99196.25;5076718;28;20207;-67
2022/04/08 06:41:45;;;;;;;9.03;1.80;;;;;;;9.87;62.04;99193.47;5082109;28;20264;-67
2022/04/08 06:44:13;;;;;;;8.90;1.80;;;;;;;9.81;62.13;99178.28;5079840;28;20548;-68
2022/04/08 06:46:42;;;;;;;11.33;2.07;;;;;;;9.78;61.88;99173.31;5079446;28;20233;-68
2022/04/08 06:49:10;;;;;;;8.47;1.97;;;;;;;9.63;62.20;99175.06;5081525;28;20213;-70
2022/04/08 06:51:41;;;;;;;12.93;1.90;;;;;;;9.64;62.52;99163.50;5080580;28;20307;-69
2022/04/08 06:54:08;;;;;;;9.43;2.00;;;;;;;9.74;62.22;99158.81;5078461;28;20269;-69
2022/04/08 06:56:36;;;;;;;7.53;1.90;;;;;;;9.90;61.78;99161.34;5076307;28;20668;-67
2022/04/08 06:59:04;;;;;;;10.77;2.40;;;;;;;9.76;62.15;99157.59;5077735;28;20235;-68
2022/04/08 07:01:31;;;;;;;8.77;2.20;;;;;;;9.97;61.65;99151.69;5077597;28;20349;-67
2022/04/08 07:04:02;;;;;;;13.10;2.47;;;;;;;10.09;61.27;99155.59;5083549;28;20210;-70
2022/04/08 07:06:30;;;;;;;7.73;1.87;;;;;;;9.76;63.64;99143.59;5079387;28;20205;-66
2022/04/08 07:08:57;;;;;;;12.53;2.17;;;;;;;10.13;61.67;99148.94;5075500;28;20237;-64
2022/04/08 07:11:30;;;;;;;12.87;2.17;;;;;;;9.84;61.82;99154.13;5073954;28;20780;-63
2022/04/08 07:13:58;;;;;;;10.30;2.30;;;;;;;10.16;61.36;99151.22;5079453;28;20212;-63
2022/04/08 07:16:25;;;;;;;11.03;2.47;;;;;;;9.97;61.94;99151.69;5084077;28;20325;-64
2022/04/08 07:18:53;;;;;;;9.90;1.90;;;;;;;10.28;61.02;99145.56;5078448;28;20268;-65
2022/04/08 07:21:22;;;;;;;10.67;2.70;;;;;;;10.01;61.72;99139.75;5081815;28;21305;-64
2022/04/08 07:23:50;;;;;;;17.53;2.40;;;;;;;9.94;62.05;99133.50;5077250;28;20210;-64
2022/04/08 07:26:20;;;;;;;10.37;2.27;;;;;;;10.36;61.09;99129.59;5077793;28;20204;-64
2022/04/08 07:28:48;;;;;;;11.60;2.60;;;;;;;10.38;60.90;99127.59;5079450;28;20217;-64
2022/04/08 07:31:15;;;;;;;9.93;2.70;;;;;;;10.16;61.29;99122.09;5077402;28;20310;-64
2022/04/08 07:33:43;;;;;;;8.00;2.50;;;;;;;10.22;61.08;99111.81;5081145;28;20271;-64
2022/04/08 07:36:12;;;;;;;13.20;2.47;;;;;;;10.16;61.72;99119.44;5082136;28;20233;-64
2022/04/08 07:38:41;;;;;;;9.67;2.33;;;;;;;10.27;61.40;99118.25;5080395;28;20205;-64
2022/04/08 07:41:09;;;;;;;7.90;2.27;;;;;;;10.21;61.31;99118.09;5079131;28;20223;-65
2022/04/08 07:43:36;;;;;;;10.40;2.30;;;;;;;10.34;61.30;99121.00;5077598;28;20313;-64
2022/04/08 07:46:05;;;;;;;11.77;2.30;;;;;;;10.50;60.81;99112.88;5080886;28;20550;-64
2022/04/08 07:48:33;;;;;;;15.63;3.00;;;;;;;10.28;61.16;99111.94;5081741;28;20217;-65
2022/04/08 07:51:01;;;;;;;11.30;2.57;;;;;;;10.46;60.44;99108.97;5079391;28;20307;-63
2022/04/08 07:53:28;;;;;;;9.70;2.40;;;;;;;10.54;60.12;99101.75;5080351;28;20215;-64
2022/04/08 07:56:08;;;;;;;13.20;2.70;;;;;;;10.60;60.04;99100.19;5083582;28;20695;-64
2022/04/08 07:58:35;;;;;;;8.60;2.30;;;;;;;10.85;59.31;99104.22;5079870;28;20293;-63
2022/04/08 08:01:03;;;;;;;10.97;2.30;;;;;;;10.77;59.50;99096.38;5081470;28;20254;-65
2022/04/08 08:03:45;;;;;;;12.63;2.80;;;;;;;10.73;59.55;99096.94;5078910;28;20208;-65
2022/04/08 08:06:12;;;;;;;9.20;2.20;;;;;;;10.89;58.95;99080.84;5084665;28;20211;-64
2022/04/08 08:08:40;;;;;;;10.43;2.63;;;;;;;10.80;58.78;99093.38;5079960;28;20213;-64
2022/04/08 08:11:12;;;;;;;12.43;2.50;;;;;;;11.01;58.41;99091.78;5075594;28;20248;-64
2022/04/08 08:13:54;;;;;;;9.73;2.13;;;;;;;10.97;57.86;99090.53;5082171;28;20563;-63
2022/04/08 08:16:22;;;;;;;14.37;2.00;;;;;;;11.08;57.75;99092.72;5082688;28;20317;-63
2022/04/08 08:18:58;;;;;;;10.07;1.93;;;;;;;11.15;57.89;99093.63;5076756;28;20209;-63
2022/04/08 08:21:26;;;;;;;10.47;2.20;;;;;;;10.81;58.90;99089.72;5079602;28;20609;-63
2022/04/08 08:23:54;;;;;;;7.97;2.07;;;;;;;10.93;58.79;99090.88;5077525;28;20219;-64
2022/04/08 08:26:23;;;;;;;14.23;2.47;;;;;;;11.10;57.92;99086.19;5079945;28;20456;-64
2022/04/08 08:28:52;;;;;;;9.20;2.00;;;;;;;11.21;57.42;99077.78;5079205;28;20217;-64
2022/04/08 08:31:19;;;;;;;10.93;2.30;;;;;;;10.89;57.64;99079.00;5079583;28;20631;-64
2022/04/08 08:33:47;;;;;;;11.10;2.13;;;;;;;11.16;56.87;99080.16;5082819;28;20210;-64
2022/04/08 08:36:15;;;;;;;8.43;2.00;;;;;;;11.23;56.47;99077.59;5078505;28;20317;-63
2022/04/08 08:38:43;;;;;;;11.93;2.30;;;;;;;11.13;56.71;99077.06;5079088;28;20206;-63
2022/04/08 08:41:11;;;;;;;14.30;2.23;;;;;;;10.99;57.76;99072.59;5081412;28;20303;-64
2022/04/08 08:43:40;;;;;;;10.97;1.90;;;;;;;11.24;56.55;99069.44;5084456;28;20304;-66
2022/04/08 08:46:08;;;;;;;9.70;1.50;;;;;;;11.20;57.02;99060.19;5079664;28;20221;-64
2022/04/08 08:48:38;;;;;;;6.17;2.00;;;;;;;11.07;57.43;99056.59;5079048;28;21097;-64
2022/04/08 08:51:07;;;;;;;10.37;1.87;;;;;;;11.34;56.11;99063.84;5077953;28;20217;-64
2022/04/08 08:53:35;;;;;;;12.20;1.73;;;;;;;11.18;55.34;99056.09;5084343;28;20539;-64
2022/04/08 08:56:03;;;;;;;11.67;2.27;;;;;;;11.21;54.97;99051.25;5077001;28;20254;-65
2022/04/08 08:58:34;;;;;;;10.13;2.30;;;;;;;11.07;55.20;99049.44;5080681;28;20213;-64
2022/04/08 09:01:03;;;;;;;10.30;2.27;;;;;;;11.01;55.60;99046.69;5082495;28;20214;-63
2022/04/08 09:03:31;;;;;;;9.47;1.60;;;;;;;10.98;55.16;99044.44;5081214;28;20605;-65
2022/04/08 09:06:06;;;;;;;5.73;1.30;;;;;;;11.10;55.69;99042.94;5080486;28;20237;-64
2022/04/08 09:08:36;;;;;;;5.57;1.13;;;;;;;11.10;55.53;99043.75;5078110;28;20670;-64
2022/04/08 09:11:04;;;;;;;11.33;1.67;;;;;;;10.80;56.92;99050.94;5077351;28;20242;-63
2022/04/08 09:13:44;;;;;;;6.73;1.37;;;;;;;10.82;56.89;99046.25;5084302;28;20203;-64
2022/04/08 09:16:13;;;;;;;10.33;1.50;;;;;;;10.67;57.94;99040.13;5079768;28;20274;-64
2022/04/08 09:18:44;;;;;;;5.67;1.33;;;;;;;10.49;58.00;99031.72;5078053;28;20586;-64
2022/04/08 09:21:23;;;;;;;8.23;1.47;;;;;;;10.79;57.90;99025.44;5081318;28;20204;-64
2022/04/08 09:23:50;;;;;;;6.03;1.23;;;;;;;10.21;58.70;99030.69;5080704;28;20235;-62
2022/04/08 09:26:19;;;;;;;6.53;1.40;;;;;;;10.48;58.96;99032.72;5079124;28;20248;-63
2022/04/08 09:28:47;;;;;;;5.50;1.30;;;;;;;10.64;57.97;99021.97;5078823;28;20217;-64
2022/04/08 09:31:21;;;;;;;8.07;1.27;;;;;;;10.83;56.53;99018.72;5080446;28;20734;-65
2022/04/08 09:33:52;;;;;;;7.63;1.20;;;;;;;10.67;56.12;99015.47;5077936;28;20218;-64
2022/04/08 09:36:27;;;;;;;4.73;0.90;;;;;;;10.48;56.28;99017.66;5075070;28;20842;-64
2022/04/08 09:38:55;;;;;;;5.17;0.90;;;;;;;10.73;56.38;99015.53;5078863;28;20206;-63
2022/04/08 09:41:38;;;;;;;5.23;1.00;;;;;;;10.89;54.83;99012.72;5081667;28;20224;-64
2022/04/08 09:44:07;;;;;;;3.83;0.70;;;;;;;10.82;55.02;98998.53;5075322;28;20330;-63
2022/04/08 09:46:37;;;;;;;4.90;0.80;;;;;;;10.76;57.34;98998.44;5076241;28;20236;-65
2022/04/08 09:49:06;;;;;;;3.80;1.07;;;;;;;10.83;57.83;98994.88;5080878;28;20212;-64
2022/04/08 09:51:37;;;;;;;5.83;1.33;;;;;;;10.78;59.00;98991.13;5077229;28;20236;-63
2022/04/08 09:54:07;;;;;;;4.17;0.90;;;;;;;10.72;58.84;98975.97;5079092;28;20621;-65
2022/04/08 09:56:36;;;;;;;5.77;1.27;;;;;;;10.79;59.67;98979.53;5081436;28;20242;-64
2022/04/08 09:59:09;;;;;;;5.50;1.17;;;;;;;10.84;59.98;98980.59;5079457;28;20494;-64
2022/04/08 10:01:39;;;;;;;4.50;1.10;;;;;;;10.61;61.24;98976.44;5080657;28;20545;-64
2022/04/08 10:04:08;;;;;;;2.70;0.90;;;;;;;10.59;61.41;98960.72;5077802;28;20214;-64
2022/04/08 10:06:36;;;;;;;4.63;1.13;;;;;;;10.67;61.43;98957.97;5073764;28;20297;-63
2022/04/08 10:09:05;;;;;;;4.23;0.77;;;;;;;10.71;61.26;98958.44;5080010;28;20227;-64
2022/04/08 10:11:50;;;;;;;3.00;0.80;;;;;;;10.73;61.06;98961.72;5083851;28;20241;-64
2022/04/08 10:14:29;;;;;;;6.23;0.87;;;;;;;10.57;63.29;98952.94;5075709;28;20204;-65
2022/04/08 10:16:59;;;;;;;5.27;1.27;;;;;;;10.72;63.15;98954.78;5077175;28;20213;-64
2022/04/08 10:19:29;;;;;;;5.03;1.20;;;;;;;10.72;63.76;98945.00;5083289;28;20299;-64
2022/04/08 10:21:57;;;;;;;6.60;1.30;;;;;;;10.21;66.55;98937.97;5075564;28;20210;-64
2022/04/08 10:24:26;;;;;;;7.63;1.80;;;;;;;10.41;66.71;98933.78;5082717;28;20312;-64
2022/04/08 10:27:00;;;;;;;5.40;1.47;;;;;;;10.13;66.86;98934.38;5079525;28;20609;-65
2022/04/08 10:29:28;;;;;;;3.73;1.13;;;;;;;10.43;65.87;98929.13;5080509;28;20235;-65
2022/04/08 10:32:00;;;;;;;6.87;1.73;;;;;;;10.09;67.80;98922.53;5080332;28;20203;-64
2022/04/08 10:34:29;;;;;;;5.03;1.20;;;;;;;10.34;67.84;98915.16;5079123;28;20615;-63
2022/04/08 10:36:56;;;;;;;3.47;1.10;;;;;;;10.15;66.69;98910.38;5077895;28;20227;-65
2022/04/08 10:39:24;;;;;;;5.40;1.80;;;;;;;10.24;66.87;98903.19;5077488;28;20227;-65
2022/04/08 10:41:53;;;;;;;2.97;1.43;;;;;;;10.23;67.53;98904.19;5079576;28;20216;-64
2022/04/08 10:44:32;;;;;;;5.23;1.43;;;;;;;10.32;67.42;98903.09;5078582;28;20725;-64
2022/04/08 10:47:03;;;;;;;5.43;0.90;;;;;;;9.82;68.19;98901.97;5077220;28;20219;-63
2022/04/08 10:49:32;;;;;;;4.80;0.80;;;;;;;9.95;68.26;98899.50;5073090;28;20295;-64
2022/04/08 10:52:00;;;;;;;2.43;0.87;;;;;;;9.81;68.01;98897.69;5076575;28;20216;-64
2022/04/08 10:54:38;;;;;;;4.10;0.87;;;;;;;9.78;68.71;98896.19;5073693;28;20215;-64
2022/04/08 10:57:09;;;;;;;4.50;1.03;;;;;;;10.07;68.43;98898.06;5074202;28;20622;-64
2022/04/08 10:59:37;;;;;;;4.13;0.90;;;;;;;9.94;69.20;98886.47;5070169;28;20624;-64
2022/04/08 11:02:10;;;;;;;4.63;1.00;;;;;;;9.98;68.73;98890.38;5072475;28;20303;-63
2022/04/08 11:04:39;;;;;;;16.03;8.60;;;;;;;9.74;69.76;98896.75;5077049;28;20317;-64
2022/04/08 11:07:07;;;;;;;6.53;3.13;;;;;;;9.52;71.11;98889.69;5080154;28;20210;-64
2022/04/08 11:09:35;;;;;;;5.20;1.57;;;;;;;9.67;71.12;98882.59;5079825;28;20594;-63
2022/04/08 11:12:04;;;;;;;3.60;0.90;;;;;;;9.95;70.43;98885.44;5079305;28;20297;-63
2022/04/08 11:14:31;;;;;;;2.80;0.80;;;;;;;10.06;69.28;98877.03;5080361;28;20213;-64
2022/04/08 11:16:59;;;;;;;4.33;1.10;;;;;;;9.86;71.73;98879.41;5078659;28;20237;-63
2022/04/08 11:19:31;;;;;;;6.27;1.50;;;;;;;10.01;71.73;98872.31;5078897;28;20695;-63
2022/04/08 11:21:58;;;;;;;3.37;0.90;;;;;;;9.92;71.12;98865.47;5080863;28;20214;-65
2022/04/08 11:24:27;;;;;;;3.07;1.00;;;;;;;9.97;69.34;98855.13;5078838;28;20659;-65
2022/04/08 11:26:55;;;;;;;5.30;1.00;;;;;;;9.98;68.66;98856.78;5079191;28;20617;-65
2022/04/08 11:29:24;;;;;;;3.47;0.77;;;;;;;10.04;68.63;98850.75;5081269;28;20254;-64
2022/04/08 11:31:54;;;;;;;1.90;0.60;;;;;;;10.01;66.40;98850.31;5081310;28;20210;-65
2022/04/08 11:34:25;;;;;;;2.70;0.60;;;;;;;9.85;68.04;98847.84;5081378;28;20839;-64
2022/04/08 11:36:55;;;;;;;2.03;0.60;;;;;;;9.20;69.35;98841.38;5079216;28;20223;-60
2022/04/08 11:39:23;;;;;;;2.73;0.40;;;;;;;8.51;76.49;98832.63;5085849;28;20207;-60
2022/04/08 11:41:53;;;;;;;1.03;0.33;;;;;;;8.98;71.90;98823.69;5080176;28;20214;-61
2022/04/08 11:44:22;;;;;;;1.90;0.37;;;;;;;8.74;73.53;98823.88;5078960;28;20237;-61